Terminal Aerodrome Forecast
Issued by NWS

Home | Current Version | Previous Version | Text Only | Print | Product List | Glossary On
Versions: 1 2 3 4 5 6 7 8 9 10 11 12 13 14 15 16 17 18 19 20 21 22 23 24 25 26 27 28 29 30 31 32 33 34 35
000
FTUS43 KLOT 200115 AAA
TAFMDW
TAF AMD
KMDW 200115Z 2001/2024 05011KT 4SM -SHRA BR OVC005
     FM200300 05009KT 2SM -SHRA BR OVC006
     FM200400 03007KT 1 1/2SM BR VCSH OVC005
     FM201000 26008KT 3SM BR VCSH OVC006
     FM201200 28012KT 6SM -SHRA BR OVC008
     FM201500 29015G24KT 6SM -SHRA OVC015
     FM201700 28018G28KT P6SM VCSH BKN020
     FM202000 27020G30KT P6SM BKN035=

USA.gov is the U.S. government's official web portal to all federal, state and local government web resources and services.